createdAt,value
2023-02-19T00:02:20.914Z,101056.84
2023-02-19T00:05:24.541Z,101058.06
2023-02-19T00:08:27.453Z,101054.31
2023-02-19T00:11:33.192Z,101058.50
2023-02-19T00:14:35.959Z,101055.41
2023-02-19T00:17:38.818Z,101057.81
2023-02-19T00:20:42.395Z,101055.72
2023-02-19T00:23:52.534Z,101055.53
2023-02-19T00:26:55.287Z,101056.16
2023-02-19T00:29:58.709Z,101067.56
2023-02-19T00:33:01.647Z,101061.06
2023-02-19T00:36:06.165Z,101065.91
2023-02-19T00:39:14.327Z,101063.66
2023-02-19T00:42:17.204Z,101064.31
2023-02-19T00:45:20.100Z,101058.19
2023-02-19T00:48:23.469Z,101062.22
2023-02-19T00:51:29.721Z,101050.53
2023-02-19T00:54:32.800Z,101061.34
2023-02-19T00:57:35.703Z,101061.06
2023-02-19T01:00:38.924Z,101074.31
2023-02-19T01:03:42.292Z,101076.78
2023-02-19T01:06:45.212Z,101069.19
2023-02-19T01:09:48.042Z,101072.28
2023-02-19T01:12:51.002Z,101071.06
2023-02-19T01:15:54.607Z,101067.38
2023-02-19T01:18:58.418Z,101072.88
2023-02-19T01:22:01.281Z,101066.66
2023-02-19T01:25:06.418Z,101067.59
2023-02-19T01:28:11.455Z,101062.91
2023-02-19T01:31:18.527Z,101056.69
2023-02-19T01:34:21.713Z,101053.59
2023-02-19T01:37:24.600Z,101056.63
2023-02-19T01:40:29.134Z,101060.13
2023-02-19T01:43:33.204Z,101066.13
2023-02-19T01:46:37.723Z,101063.69
2023-02-19T01:50:01.866Z,101066.97
2023-02-19T01:53:08.896Z,101065.22
2023-02-19T01:56:13.710Z,101072.72
2023-02-19T01:59:18.490Z,101060.03
2023-02-19T02:02:22.884Z,101057.75
2023-02-19T02:05:47.975Z,101064.50
2023-02-19T02:09:15.790Z,101074.28
2023-02-19T02:12:18.864Z,101064.25
2023-02-19T02:15:24.579Z,101076.72
2023-02-19T02:19:23.088Z,101067.22
2023-02-19T02:22:43.002Z,101067.78
2023-02-19T02:26:10.600Z,101068.09
2023-02-19T02:29:25.434Z,101064.97
2023-02-19T02:32:36.277Z,101064.25
2023-02-19T02:35:56.949Z,101069.91
2023-02-19T02:39:03.666Z,101066.59
2023-02-19T02:42:30.208Z,101070.44
2023-02-19T02:45:45.620Z,101076.00
2023-02-19T02:48:58.841Z,101081.66
2023-02-19T02:52:22.393Z,101083.00
2023-02-19T02:55:29.033Z,101088.41
2023-02-19T02:58:34.161Z,101103.53
2023-02-19T03:02:08.913Z,101097.63
2023-02-19T03:05:30.172Z,101091.69
2023-02-19T03:08:39.292Z,101096.88
2023-02-19T03:12:06.023Z,101097.25
2023-02-19T03:15:33.368Z,101092.69
2023-02-19T03:18:57.247Z,101095.25
2023-02-19T03:22:17.299Z,101102.72
2023-02-19T03:25:42.932Z,101098.41
2023-02-19T03:29:10.048Z,101107.81
2023-02-19T03:32:29.775Z,101120.50
2023-02-19T03:35:37.110Z,101111.41
2023-02-19T03:38:48.975Z,101116.84
2023-02-19T03:42:10.589Z,101119.88
2023-02-19T03:45:32.482Z,101116.31
2023-02-19T03:48:53.151Z,101121.88
2023-02-19T03:52:21.946Z,101114.56
2023-02-19T03:55:51.606Z,101129.63
2023-02-19T03:59:11.946Z,101128.81
2023-02-19T04:02:33.982Z,101138.38
2023-02-19T04:05:42.333Z,101131.19
2023-02-19T04:08:50.294Z,101130.00
2023-02-19T04:11:55.428Z,101128.88
2023-02-19T04:15:04.493Z,101133.25
2023-02-19T04:18:16.476Z,101128.84
2023-02-19T04:21:21.872Z,101116.34
2023-02-19T04:24:50.365Z,101120.16
2023-02-19T04:27:53.270Z,101118.41
2023-02-19T04:30:56.199Z,101126.53
2023-02-19T04:33:59.015Z,101122.72
2023-02-19T04:37:01.913Z,101117.50
2023-02-19T04:40:05.211Z,101107.41
2023-02-19T04:43:08.190Z,101114.31
2023-02-19T04:46:10.936Z,101109.03
2023-02-19T04:49:13.784Z,101109.22
2023-02-19T04:52:16.890Z,101104.28
2023-02-19T04:55:19.792Z,101106.19
2023-02-19T04:58:22.825Z,101116.94
2023-02-19T05:01:26.342Z,101115.38
2023-02-19T05:04:29.335Z,101117.19
2023-02-19T05:07:32.299Z,101110.06
2023-02-19T05:10:36.525Z,101101.34
2023-02-19T05:13:40.560Z,101096.41
2023-02-19T05:16:43.409Z,101088.94
2023-02-19T05:19:46.452Z,101097.22
2023-02-19T05:22:49.604Z,101098.06
2023-02-19T05:25:52.711Z,101081.69
2023-02-19T05:28:55.483Z,101087.06
2023-02-19T05:31:58.637Z,101095.09
2023-02-19T05:35:01.540Z,101082.41
2023-02-19T05:38:06.134Z,101085.34
2023-02-19T05:41:17.381Z,101076.88
2023-02-19T05:44:20.361Z,101069.84
2023-02-19T05:47:23.204Z,101068.78
2023-02-19T05:50:26.789Z,101075.72
2023-02-19T05:53:29.646Z,101082.81
2023-02-19T05:56:42.934Z,101077.25
2023-02-19T05:59:45.742Z,101076.38
2023-02-19T06:02:49.119Z,101074.91
2023-02-19T06:05:52.105Z,101066.78
2023-02-19T06:08:55.472Z,101062.00
2023-02-19T06:11:58.385Z,101057.44
2023-02-19T06:15:01.247Z,101060.59
2023-02-19T06:18:04.376Z,101071.72
2023-02-19T06:21:10.408Z,101067.38
2023-02-19T06:24:13.626Z,101070.78
2023-02-19T06:27:16.783Z,101073.13
2023-02-19T06:30:19.885Z,101075.66
2023-02-19T06:33:22.707Z,101068.56
2023-02-19T06:36:25.825Z,101069.06
2023-02-19T06:39:28.641Z,101078.25
2023-02-19T06:42:34.518Z,101066.66
2023-02-19T06:45:37.340Z,101061.31
2023-02-19T06:48:41.731Z,101062.72
2023-02-19T06:51:44.642Z,101068.63
2023-02-19T06:54:47.609Z,101065.66
2023-02-19T06:57:50.476Z,101056.84
2023-02-19T07:00:54.029Z,101070.69
2023-02-19T07:03:57.089Z,101059.28
2023-02-19T07:07:00.549Z,101071.41
2023-02-19T07:10:04.725Z,101060.50
2023-02-19T07:13:08.419Z,101051.75
2023-02-19T07:16:12.450Z,101043.66
2023-02-19T07:19:16.067Z,101046.97
2023-02-19T07:22:18.945Z,101045.59
2023-02-19T07:25:21.980Z,101035.19
2023-02-19T07:28:25.026Z,101039.31
2023-02-19T07:31:28.929Z,101034.31
2023-02-19T07:34:32.077Z,101030.66
2023-02-19T07:37:35.047Z,101024.31
2023-02-19T07:40:38.616Z,101021.47
2023-02-19T07:43:41.536Z,101016.97
2023-02-19T07:46:44.658Z,101015.97
2023-02-19T07:49:47.714Z,101013.75
2023-02-19T07:52:50.444Z,101003.44
2023-02-19T07:55:53.839Z,101006.91
2023-02-19T07:58:56.732Z,101015.16
2023-02-19T08:02:18.459Z,101010.84
2023-02-19T08:05:21.313Z,101009.63
2023-02-19T08:08:24.349Z,101016.09
2023-02-19T08:11:45.894Z,101014.63
2023-02-19T08:14:48.838Z,101010.22
2023-02-19T08:17:52.172Z,101020.03
2023-02-19T08:20:56.051Z,101026.34
2023-02-19T08:23:58.953Z,101038.03
2023-02-19T08:27:01.822Z,101051.31
2023-02-19T08:30:05.595Z,101061.75
2023-02-19T08:33:10.761Z,101050.81
2023-02-19T08:36:13.679Z,101057.50
2023-02-19T08:39:16.862Z,101052.44
2023-02-19T08:42:20.425Z,101043.25
2023-02-19T08:45:24.537Z,101042.47
2023-02-19T08:48:27.897Z,101035.31
2023-02-19T08:51:30.712Z,101039.81
2023-02-19T08:54:33.569Z,101048.16
2023-02-19T08:57:37.809Z,101039.59
2023-02-19T09:00:41.268Z,101047.34
2023-02-19T09:03:44.464Z,101040.56
2023-02-19T09:06:47.356Z,101036.28
2023-02-19T09:09:50.665Z,101025.69
2023-02-19T09:12:53.495Z,101029.50
2023-02-19T09:15:57.384Z,101037.72
2023-02-19T09:19:00.442Z,101040.38
2023-02-19T09:22:04.692Z,101043.28
2023-02-19T09:25:07.776Z,101037.97
2023-02-19T09:28:10.501Z,101040.84
2023-02-19T09:31:16.060Z,101043.13
2023-02-19T09:34:19.189Z,101041.03
2023-02-19T09:37:25.952Z,101039.00
2023-02-19T09:40:30.502Z,101035.50
2023-02-19T09:43:34.005Z,101040.13
2023-02-19T09:46:52.011Z,101015.75
2023-02-19T09:50:01.155Z,101020.69
2023-02-19T09:53:12.968Z,101034.97
2023-02-19T09:56:16.358Z,101034.75
2023-02-19T09:59:31.949Z,101033.72
2023-02-19T10:02:34.853Z,101030.47
2023-02-19T10:05:40.047Z,101032.66
2023-02-19T10:08:46.123Z,101037.31
2023-02-19T10:11:49.969Z,101004.50
2023-02-19T10:15:00.225Z,101001.00
2023-02-19T10:18:05.245Z,100991.34
2023-02-19T10:21:19.855Z,100971.50
2023-02-19T10:24:29.861Z,100974.13
2023-02-19T10:27:33.399Z,100970.28
2023-02-19T10:30:37.545Z,100943.50
2023-02-19T10:33:58.404Z,100936.31
2023-02-19T10:37:01.387Z,100923.88
2023-02-19T10:40:04.702Z,100900.56
2023-02-19T10:43:22.583Z,100879.28
2023-02-19T10:46:32.184Z,100859.66
2023-02-19T10:49:40.866Z,100835.41
2023-02-19T10:52:44.054Z,100848.09
2023-02-19T10:55:46.981Z,100908.34
2023-02-19T10:58:50.234Z,100870.63
2023-02-19T11:02:01.866Z,100900.19
2023-02-19T11:05:19.979Z,100923.25
2023-02-19T11:08:24.099Z,100912.19
2023-02-19T11:11:35.547Z,100920.09
2023-02-19T11:14:43.566Z,100916.59
2023-02-19T11:17:55.371Z,100904.75
2023-02-19T11:21:01.170Z,100889.91
2023-02-19T11:24:04.485Z,100896.97
2023-02-19T11:27:19.513Z,100877.06
2023-02-19T11:30:33.863Z,100861.53
2023-02-19T11:33:45.091Z,100872.09
2023-02-19T11:37:11.792Z,100884.69
2023-02-19T11:40:14.614Z,100882.56
2023-02-19T11:43:39.578Z,100894.69
2023-02-19T11:46:57.088Z,100890.25
2023-02-19T11:50:14.845Z,100888.69
2023-02-19T11:53:28.065Z,100891.44
2023-02-19T11:56:36.704Z,100895.97
2023-02-19T11:59:53.846Z,100881.22
2023-02-19T12:03:34.692Z,100891.44
2023-02-19T12:06:49.372Z,100890.31
2023-02-19T12:09:59.552Z,100887.66
2023-02-19T12:13:14.351Z,100889.84
2023-02-19T12:16:30.161Z,100864.50
2023-02-19T12:19:55.010Z,100866.59
2023-02-19T12:23:35.055Z,100851.72
2023-02-19T12:27:08.689Z,100861.63
2023-02-19T12:30:29.797Z,100857.41
2023-02-19T12:33:53.900Z,100852.59
2023-02-19T12:37:23.779Z,100841.94
2023-02-19T12:40:57.887Z,100811.69
2023-02-19T12:44:37.861Z,100833.91
2023-02-19T12:47:43.790Z,100824.97
2023-02-19T12:50:50.899Z,100841.47
2023-02-19T12:54:12.601Z,100842.41
2023-02-19T12:57:29.316Z,100848.34
2023-02-19T13:00:45.541Z,100846.63
2023-02-19T13:03:54.776Z,100859.03
2023-02-19T13:07:17.660Z,100862.47
2023-02-19T13:11:00.194Z,100867.44
2023-02-19T13:14:13.677Z,100848.47
2023-02-19T13:17:26.938Z,100858.66
2023-02-19T13:20:38.115Z,100857.34
2023-02-19T13:23:59.545Z,100873.38
2023-02-19T13:27:44.283Z,100883.72
2023-02-19T13:31:22.193Z,100869.50
2023-02-19T13:34:48.073Z,100851.66
2023-02-19T13:37:54.320Z,100832.63
2023-02-19T13:41:00.244Z,100833.06
2023-02-19T13:44:06.863Z,100824.75
2023-02-19T13:47:49.678Z,100813.19
2023-02-19T13:51:26.865Z,100814.09
2023-02-19T13:54:40.476Z,100807.69
2023-02-19T13:57:45.043Z,100811.88
2023-02-19T14:00:55.112Z,100811.03
2023-02-19T14:04:18.514Z,100812.53
2023-02-19T14:07:27.367Z,100801.03
2023-02-19T14:10:58.431Z,100802.91
2023-02-19T14:14:06.701Z,100801.91
2023-02-19T14:17:10.126Z,100810.72
2023-02-19T14:20:17.143Z,100795.03
2023-02-19T14:23:24.356Z,100789.88
2023-02-19T14:26:30.974Z,100785.31
2023-02-19T14:29:34.311Z,100785.63
2023-02-19T14:32:42.221Z,100795.25
2023-02-19T14:35:49.564Z,100805.63
2023-02-19T14:38:58.552Z,100810.78
2023-02-19T14:42:09.821Z,100812.66
2023-02-19T14:45:16.224Z,100821.81
2023-02-19T14:48:24.723Z,100808.19
2023-02-19T14:51:33.712Z,100812.13
2023-02-19T14:54:43.355Z,100811.81
2023-02-19T14:57:49.878Z,100811.56
2023-02-19T15:00:53.077Z,100827.16
2023-02-19T15:03:56.719Z,100825.13
2023-02-19T15:07:02.736Z,100843.56
2023-02-19T15:10:11.434Z,100841.84
2023-02-19T15:13:23.423Z,100851.13
2023-02-19T15:16:28.427Z,100845.31
2023-02-19T15:19:39.733Z,100839.97
2023-02-19T15:22:46.326Z,100852.09
2023-02-19T15:25:49.762Z,100849.44
2023-02-19T15:29:20.208Z,100845.56
2023-02-19T15:32:27.168Z,100852.69
2023-02-19T15:35:32.756Z,100866.56
2023-02-19T15:38:36.521Z,100867.19
2023-02-19T15:41:39.650Z,100872.47
2023-02-19T15:44:47.626Z,100901.31
2023-02-19T15:47:59.552Z,100913.88
2023-02-19T15:51:09.935Z,100924.09
2023-02-19T15:54:38.610Z,100921.50
2023-02-19T15:57:46.712Z,100918.56
2023-02-19T16:00:57.495Z,100917.59
2023-02-19T16:04:01.014Z,100906.84
2023-02-19T16:07:04.153Z,100911.38
2023-02-19T16:10:19.336Z,100922.31
2023-02-19T16:13:31.836Z,100926.25
2023-02-19T16:16:41.125Z,100935.16
2023-02-19T16:19:57.580Z,100929.53
2023-02-19T16:23:10.617Z,100943.88
2023-02-19T16:26:14.135Z,100942.72
2023-02-19T16:29:22.780Z,100938.44
2023-02-19T16:32:26.158Z,100946.91
2023-02-19T16:35:40.126Z,100961.28
2023-02-19T16:39:08.310Z,100959.50
2023-02-19T16:42:13.670Z,100961.19
2023-02-19T16:45:18.192Z,100967.72
2023-02-19T16:48:23.139Z,100977.75
2023-02-19T16:51:27.549Z,100989.59
2023-02-19T16:54:30.815Z,100983.69
2023-02-19T16:57:33.874Z,100992.66
2023-02-19T17:00:37.167Z,100994.72
2023-02-19T17:03:40.498Z,101005.34
2023-02-19T17:06:44.634Z,101005.13
2023-02-19T17:09:47.637Z,101009.22
2023-02-19T17:12:52.018Z,101000.38
2023-02-19T17:15:55.648Z,101023.09
2023-02-19T17:18:59.067Z,101027.34
2023-02-19T17:22:02.077Z,101037.97
2023-02-19T17:25:05.595Z,101035.66
2023-02-19T17:28:08.597Z,101040.31
2023-02-19T17:31:13.964Z,101050.91
2023-02-19T17:34:17.174Z,101054.16
2023-02-19T17:37:20.150Z,101060.88
2023-02-19T17:40:33.082Z,101060.03
2023-02-19T17:43:36.717Z,101058.63
2023-02-19T17:46:41.189Z,101066.00
2023-02-19T17:49:44.290Z,101058.91
2023-02-19T17:52:47.451Z,101055.06
2023-02-19T17:55:51.069Z,101074.06
2023-02-19T17:58:55.975Z,101061.78
2023-02-19T18:01:59.171Z,101096.53
2023-02-19T18:05:02.034Z,101094.44
2023-02-19T18:08:04.928Z,101100.38
2023-02-19T18:11:08.324Z,101090.81
2023-02-19T18:14:11.541Z,101106.34
2023-02-19T18:17:15.245Z,101104.88
2023-02-19T18:20:22.333Z,101108.13
2023-02-19T18:23:25.562Z,101100.09
2023-02-19T18:26:28.782Z,101106.81
2023-02-19T18:29:35.043Z,101106.88
2023-02-19T18:32:39.174Z,101112.19
2023-02-19T18:35:42.367Z,101145.72
2023-02-19T18:38:46.370Z,101172.59
2023-02-19T18:41:51.916Z,101168.94
2023-02-19T18:44:56.226Z,101156.03
2023-02-19T18:47:59.300Z,101160.59
2023-02-19T18:51:02.572Z,101171.44
2023-02-19T18:54:07.937Z,101166.03
2023-02-19T18:57:11.058Z,101172.56
2023-02-19T19:00:26.516Z,101187.06
2023-02-19T19:03:31.679Z,101183.50
2023-02-19T19:06:37.733Z,101182.53
2023-02-19T19:09:40.969Z,101199.50
2023-02-19T19:12:44.951Z,101201.81
2023-02-19T19:15:51.464Z,101203.59
2023-02-19T19:18:55.530Z,101207.94
2023-02-19T19:21:58.838Z,101209.53
2023-02-19T19:25:02.052Z,101221.13
2023-02-19T19:28:05.427Z,101234.06
2023-02-19T19:31:08.377Z,101242.81
2023-02-19T19:34:12.742Z,101260.13
2023-02-19T19:37:16.954Z,101257.13
2023-02-19T19:40:20.337Z,101262.88
2023-02-19T19:43:27.447Z,101280.34
2023-02-19T19:46:30.879Z,101280.09
2023-02-19T19:49:34.153Z,101276.53
2023-02-19T19:52:37.469Z,101291.69
2023-02-19T19:55:41.249Z,101295.31
2023-02-19T19:58:44.685Z,101305.03
2023-02-19T20:01:52.668Z,101303.75
2023-02-19T20:04:55.593Z,101306.31
2023-02-19T20:07:58.785Z,101309.72
2023-02-19T20:11:03.114Z,101316.38
2023-02-19T20:14:06.330Z,101323.16
2023-02-19T20:17:09.764Z,101333.75
2023-02-19T20:20:13.938Z,101337.66
2023-02-19T20:23:17.129Z,101336.09
2023-02-19T20:26:28.175Z,101322.09
2023-02-19T20:29:34.526Z,101333.81
2023-02-19T20:32:39.756Z,101340.00
2023-02-19T20:35:42.983Z,101342.00
2023-02-19T20:38:46.911Z,101357.66
2023-02-19T20:41:51.884Z,101359.63
2023-02-19T20:44:56.565Z,101353.44
2023-02-19T20:47:59.884Z,101346.38
2023-02-19T20:51:03.237Z,101359.69
2023-02-19T20:54:06.327Z,101354.28
2023-02-19T20:57:10.301Z,101374.56
2023-02-19T21:00:15.690Z,101369.25
2023-02-19T21:03:18.832Z,101369.16
2023-02-19T21:06:22.786Z,101372.56
2023-02-19T21:09:25.657Z,101378.28
2023-02-19T21:12:28.927Z,101384.91
2023-02-19T21:15:34.480Z,101397.16
2023-02-19T21:18:37.547Z,101390.44
2023-02-19T21:21:40.784Z,101386.66
2023-02-19T21:24:43.733Z,101376.75
2023-02-19T21:27:46.703Z,101389.66
2023-02-19T21:30:49.825Z,101387.97
2023-02-19T21:33:52.762Z,101409.56
2023-02-19T21:36:56.591Z,101414.00
2023-02-19T21:40:00.616Z,101411.66
2023-02-19T21:43:04.668Z,101403.09
2023-02-19T21:46:07.574Z,101410.91
2023-02-19T21:49:11.728Z,101409.56
2023-02-19T21:52:14.803Z,101409.25
2023-02-19T21:55:17.716Z,101414.63
2023-02-19T21:58:20.856Z,101419.13
2023-02-19T22:01:30.277Z,101417.19
2023-02-19T22:04:33.112Z,101422.09
2023-02-19T22:07:35.968Z,101418.28
2023-02-19T22:10:42.676Z,101428.50
2023-02-19T22:13:45.563Z,101433.75
2023-02-19T22:16:48.545Z,101433.75
2023-02-19T22:19:51.467Z,101434.22
2023-02-19T22:22:54.354Z,101440.16
2023-02-19T22:25:57.248Z,101432.03
2023-02-19T22:29:01.559Z,101435.41
2023-02-19T22:32:04.744Z,101437.63
2023-02-19T22:35:07.893Z,101432.34
2023-02-19T22:38:10.794Z,101433.50
2023-02-19T22:41:14.642Z,101443.66
2023-02-19T22:44:17.932Z,101466.41
2023-02-19T22:47:20.870Z,101452.59
2023-02-19T22:50:23.965Z,101475.75
2023-02-19T22:53:26.909Z,101496.69
2023-02-19T22:56:30.342Z,101503.66
2023-02-19T22:59:33.217Z,101503.19
2023-02-19T23:02:36.552Z,101501.25
2023-02-19T23:05:39.934Z,101512.66
2023-02-19T23:08:44.229Z,101524.56
2023-02-19T23:11:47.825Z,101519.44
2023-02-19T23:14:50.640Z,101535.78
2023-02-19T23:17:53.483Z,101537.41
2023-02-19T23:20:56.379Z,101549.28
2023-02-19T23:23:59.704Z,101557.69
2023-02-19T23:27:02.589Z,101560.84
2023-02-19T23:30:06.266Z,101560.84
2023-02-19T23:33:09.125Z,101561.19
2023-02-19T23:36:14.072Z,101559.88
2023-02-19T23:39:20.562Z,101561.03
2023-02-19T23:42:23.433Z,101555.91
2023-02-19T23:45:26.285Z,101554.59
2023-02-19T23:48:29.014Z,101570.09
2023-02-19T23:51:31.873Z,101572.56
2023-02-19T23:54:35.087Z,101581.31
2023-02-19T23:57:37.970Z,101592.72
